»·PEaware :: N475RS KPSP-KVNY

N475RS :: KPSP-KVNY

FLIGHT INFORMATION

Flight Status: Arrived
Operator: Privately registered:
United States
More flights under this callsign
Pilot: Aker J. (16898)
Aircraft: GULFSTREAM G-1159C GULFSTREAM 4
(GLF4)
More flights by this aircraft type
Origin: KPSP Palm Springs Intl
United States
Destination: KVNY Van Nuys
United States
More flights between these airports :: More routes between these airports
Route: +CATH1 PSP V386 PMD LYNXX8
File this flight plan on PilotEdge
Remarks: Sample flight plan
Altitude:
(Current/Filed)
32,000ft
Speed:
(Current/Filed)
300kts
Departed: 10-Dec-17 06:24 PM
Arrived: 10-Dec-17 07:09 PM
Distance/Time
Traveled:
101nm/0:45
Distance/Time
To Go:
Arrived

Flight Plot

Page will automatically refresh every two minutes.

Flight plan parsing failed; only flown route is shown


Map Options




Map Legend


Flown Route
Filed Route
Departure Airport
Arrival Airport
Navaid (VOR, NDB)
Fix

Horizontal Profiles

Position Reports

Time Latitude Longitude Heading Altitude Ground
Speed
10-Dec-17 18:09 33.820341 -116.494455 320 391ft 0kts
10-Dec-17 18:10 33.820353 -116.494467 320 389ft 0kts
10-Dec-17 18:11 33.820353 -116.494467 320 389ft 0kts
10-Dec-17 18:12 33.820353 -116.494467 320 389ft 0kts
10-Dec-17 18:13 33.820353 -116.494467 320 389ft 0kts
10-Dec-17 18:14 33.820353 -116.494467 320 389ft 0kts
10-Dec-17 18:15 33.820353 -116.494467 320 389ft 0kts
10-Dec-17 18:16 33.820353 -116.494467 320 389ft 0kts
10-Dec-17 18:17 33.820353 -116.494467 320 389ft 0kts
10-Dec-17 18:18 33.820353 -116.494467 320 389ft 0kts
10-Dec-17 18:19 33.820353 -116.494467 320 389ft 0kts
10-Dec-17 18:20 33.820353 -116.494467 320 389ft 0kts
10-Dec-17 18:21 33.820353 -116.494467 320 389ft 0kts
10-Dec-17 18:22 33.820353 -116.494467 320 389ft 0kts
10-Dec-17 18:23 33.820353 -116.494467 320 389ft 0kts
10-Dec-17 18:24 33.820353 -116.494467 320 389ft 0kts
10-Dec-17 18:25 33.820353 -116.494467 320 389ft 0kts
10-Dec-17 18:26 33.820353 -116.494467 320 389ft 0kts
10-Dec-17 18:27 33.820353 -116.494467 320 389ft 0kts
10-Dec-17 18:28 33.819744 -116.496242 231 392ft 17kts
10-Dec-17 18:29 33.819111 -116.497272 237 394ft 6kts
10-Dec-17 18:30 33.834181 -116.510965 325 600ft 140kts
10-Dec-17 18:31 33.877247 -116.509304 35 1959ft 325kts
10-Dec-17 18:31 33.908825 -116.470365 45 2839ft 275kts
10-Dec-17 18:33 33.965354 -116.436850 353 4341ft 215kts
10-Dec-17 18:34 34.008996 -116.446856 347 5435ft 191kts
10-Dec-17 18:34 34.026599 -116.451080 335 5908ft 182kts
10-Dec-17 18:36 34.014033 -116.522454 241 7678ft 256kts
10-Dec-17 18:36 33.984907 -116.585135 250 8861ft 276kts
10-Dec-17 18:37 34.025359 -116.636299 11 10348ft 256kts
10-Dec-17 18:38 34.090692 -116.613473 26 11763ft 261kts
10-Dec-17 18:39 34.128424 -116.595029 26 12580ft 265kts
10-Dec-17 18:40 34.196527 -116.604957 346 13677ft 310kts
10-Dec-17 18:41 34.292710 -116.631066 351 16239ft 388kts
10-Dec-17 18:42 34.398527 -116.654882 351 18696ft 397kts
10-Dec-17 18:43 34.494106 -116.706762 299 21027ft 402kts
10-Dec-17 18:44 34.517509 -116.831515 274 22728ft 413kts
10-Dec-17 18:45 34.531705 -116.973372 274 23065ft 429kts
10-Dec-17 18:46 34.545522 -117.117424 274 23072ft 447kts
10-Dec-17 18:47 34.559252 -117.262193 274 23015ft 458kts
10-Dec-17 18:48 34.572086 -117.399368 274 22968ft 449kts
10-Dec-17 18:49 34.584860 -117.537659 274 23030ft 434kts
10-Dec-17 18:50 34.597015 -117.670878 274 23065ft 415kts
10-Dec-17 18:51 34.608330 -117.796445 274 21129ft 352kts
10-Dec-17 18:52 34.618140 -117.906569 274 19078ft 310kts
10-Dec-17 18:53 34.626744 -118.004131 274 17113ft 291kts
10-Dec-17 18:54 34.625009 -118.092795 252 15195ft 268kts
10-Dec-17 18:55 34.606693 -118.175305 252 14046ft 240kts
10-Dec-17 18:56 34.590215 -118.249385 252 13990ft 231kts
10-Dec-17 18:57 34.574083 -118.321680 252 13993ft 235kts
10-Dec-17 18:58 34.557895 -118.393639 252 12877ft 233kts
10-Dec-17 18:59 34.541684 -118.465569 253 10935ft 225kts
10-Dec-17 19:00 34.526176 -118.534028 254 9050ft 222kts
10-Dec-17 19:01 34.489540 -118.579112 203 7824ft 182kts
10-Dec-17 19:02 34.451968 -118.601410 203 6875ft 177kts
10-Dec-17 19:03 34.407008 -118.626701 203 5823ft 174kts
10-Dec-17 19:04 34.363196 -118.651443 202 5834ft 200kts
10-Dec-17 19:05 34.314969 -118.678942 202 5833ft 196kts
10-Dec-17 19:06 34.264570 -118.691182 171 5826ft 192kts
10-Dec-17 19:07 34.214532 -118.686709 171 4789ft 194kts
10-Dec-17 19:08 34.172793 -118.665408 121 3838ft 177kts
10-Dec-17 19:09 34.146999 -118.621433 121 3805ft 160kts
10-Dec-17 19:10 34.129722 -118.581252 82 3818ft 139kts
10-Dec-17 19:11 34.132745 -118.532076 72 2816ft 130kts
10-Dec-17 19:12 34.157533 -118.497120 26 1753ft 136kts
10-Dec-17 19:13 34.189425 -118.488485 355 918ft 117kts
10-Dec-17 19:14 34.205938 -118.489969 355 771ft 16kts
10-Dec-17 19:15 34.206912 -118.488327 38 774ft 15kts
10-Dec-17 19:16 34.174130 -118.488758 11 1269ft 124kts
10-Dec-17 19:17 34.202992 -118.489790 5 763ft 38kts
10-Dec-17 19:18 34.203599 -118.489792 355 764ft 30kts

Navigation Log

Ident Type
Flight plan parsing failed, navigation log unavailable